sensor_id;sensor_type;location;lat;lon;timestamp;temperature;humidity
28175;SHT30;59417;44.788;10.334;2023-04-25T00:00:20;15.94;65.03
28175;SHT30;59417;44.788;10.334;2023-04-25T00:02:46;15.93;65.04
28175;SHT30;59417;44.788;10.334;2023-04-25T00:05:12;15.84;65.29
28175;SHT30;59417;44.788;10.334;2023-04-25T00:07:38;15.72;65.82
28175;SHT30;59417;44.788;10.334;2023-04-25T00:10:04;15.73;65.92
28175;SHT30;59417;44.788;10.334;2023-04-25T00:12:30;15.73;65.70
28175;SHT30;59417;44.788;10.334;2023-04-25T00:14:56;15.74;65.83
28175;SHT30;59417;44.788;10.334;2023-04-25T00:17:25;15.74;65.94
28175;SHT30;59417;44.788;10.334;2023-04-25T00:19:52;15.69;66.17
28175;SHT30;59417;44.788;10.334;2023-04-25T00:22:18;15.74;66.10
28175;SHT30;59417;44.788;10.334;2023-04-25T00:24:43;15.77;65.78
28175;SHT30;59417;44.788;10.334;2023-04-25T00:27:09;15.59;66.58
28175;SHT30;59417;44.788;10.334;2023-04-25T00:29:34;15.48;67.02
28175;SHT30;59417;44.788;10.334;2023-04-25T00:32:01;15.56;67.01
28175;SHT30;59417;44.788;10.334;2023-04-25T00:34:26;15.56;66.71
28175;SHT30;59417;44.788;10.334;2023-04-25T00:36:52;15.45;67.29
28175;SHT30;59417;44.788;10.334;2023-04-25T00:39:18;15.41;67.55
28175;SHT30;59417;44.788;10.334;2023-04-25T00:41:44;15.35;67.81
28175;SHT30;59417;44.788;10.334;2023-04-25T00:44:11;15.22;67.98
28175;SHT30;59417;44.788;10.334;2023-04-25T00:46:38;15.16;68.33
28175;SHT30;59417;44.788;10.334;2023-04-25T00:49:04;15.36;67.77
28175;SHT30;59417;44.788;10.334;2023-04-25T00:51:30;15.36;67.50
28175;SHT30;59417;44.788;10.334;2023-04-25T00:53:58;15.31;67.88
28175;SHT30;59417;44.788;10.334;2023-04-25T00:56:24;15.29;68.15
28175;SHT30;59417;44.788;10.334;2023-04-25T00:58:53;15.32;67.79
28175;SHT30;59417;44.788;10.334;2023-04-25T01:01:20;15.34;67.84
28175;SHT30;59417;44.788;10.334;2023-04-25T01:03:46;15.34;67.82
28175;SHT30;59417;44.788;10.334;2023-04-25T03:34:09;12.77;76.00
28175;SHT30;59417;44.788;10.334;2023-04-25T03:36:40;12.83;75.67
28175;SHT30;59417;44.788;10.334;2023-04-25T03:39:09;12.89;75.17
28175;SHT30;59417;44.788;10.334;2023-04-25T03:41:37;12.95;74.67
28175;SHT30;59417;44.788;10.334;2023-04-25T03:44:08;12.89;75.58
28175;SHT30;59417;44.788;10.334;2023-04-25T03:46:34;12.82;75.41
28175;SHT30;59417;44.788;10.334;2023-04-25T03:49:00;12.92;74.99
28175;SHT30;59417;44.788;10.334;2023-04-25T03:51:39;12.89;75.14
28175;SHT30;59417;44.788;10.334;2023-04-25T03:54:07;12.90;75.28
28175;SHT30;59417;44.788;10.334;2023-04-25T03:56:39;12.79;75.10
28175;SHT30;59417;44.788;10.334;2023-04-25T03:59:16;12.58;75.46
28175;SHT30;59417;44.788;10.334;2023-04-25T04:01:44;12.62;75.25
28175;SHT30;59417;44.788;10.334;2023-04-25T04:04:10;12.52;75.76
28175;SHT30;59417;44.788;10.334;2023-04-25T04:06:39;12.59;75.45
28175;SHT30;59417;44.788;10.334;2023-04-25T04:09:13;12.69;75.14
28175;SHT30;59417;44.788;10.334;2023-04-25T04:11:42;12.59;75.55
28175;SHT30;59417;44.788;10.334;2023-04-25T04:14:08;12.53;75.74
28175;SHT30;59417;44.788;10.334;2023-04-25T04:16:40;12.58;75.48
28175;SHT30;59417;44.788;10.334;2023-04-25T04:19:07;12.56;75.73
28175;SHT30;59417;44.788;10.334;2023-04-25T04:21:35;12.62;75.32
28175;SHT30;59417;44.788;10.334;2023-04-25T04:24:02;12.46;75.83
28175;SHT30;59417;44.788;10.334;2023-04-25T04:26:36;12.25;77.08
28175;SHT30;59417;44.788;10.334;2023-04-25T04:29:27;12.41;76.42
28175;SHT30;59417;44.788;10.334;2023-04-25T04:32:15;12.51;76.34
28175;SHT30;59417;44.788;10.334;2023-04-25T04:34:44;12.53;76.15
28175;SHT30;59417;44.788;10.334;2023-04-25T04:37:15;12.51;75.94
28175;SHT30;59417;44.788;10.334;2023-04-25T04:39:42;12.41;76.51
28175;SHT30;59417;44.788;10.334;2023-04-25T04:42:22;12.29;77.00
28175;SHT30;59417;44.788;10.334;2023-04-25T04:44:55;12.13;77.74
28175;SHT30;59417;44.788;10.334;2023-04-25T04:47:40;12.05;78.62
28175;SHT30;59417;44.788;10.334;2023-04-25T04:50:32;12.08;78.67
28175;SHT30;59417;44.788;10.334;2023-04-25T04:53:18;12.16;78.26
28175;SHT30;59417;44.788;10.334;2023-04-25T04:55:56;12.24;78.35
28175;SHT30;59417;44.788;10.334;2023-04-25T04:58:40;12.24;78.76
28175;SHT30;59417;44.788;10.334;2023-04-25T05:01:31;12.20;78.59
28175;SHT30;59417;44.788;10.334;2023-04-25T05:04:15;12.14;78.83
28175;SHT30;59417;44.788;10.334;2023-04-25T05:07:02;12.22;78.84
28175;SHT30;59417;44.788;10.334;2023-04-25T05:09:42;12.18;78.93
28175;SHT30;59417;44.788;10.334;2023-04-25T05:12:39;11.99;79.88
28175;SHT30;59417;44.788;10.334;2023-04-25T05:15:14;11.91;79.97
28175;SHT30;59417;44.788;10.334;2023-04-25T05:18:00;11.76;80.53
28175;SHT30;59417;44.788;10.334;2023-04-25T05:20:38;11.73;81.00
28175;SHT30;59417;44.788;10.334;2023-04-25T05:23:22;11.67;80.89
28175;SHT30;59417;44.788;10.334;2023-04-25T05:26:01;11.66;80.96
28175;SHT30;59417;44.788;10.334;2023-04-25T05:28:44;11.76;80.90
28175;SHT30;59417;44.788;10.334;2023-04-25T05:31:38;11.94;80.64
28175;SHT30;59417;44.788;10.334;2023-04-25T05:34:09;11.93;80.29
28175;SHT30;59417;44.788;10.334;2023-04-25T05:36:44;11.91;80.00
28175;SHT30;59417;44.788;10.334;2023-04-25T05:39:09;11.91;80.55
28175;SHT30;59417;44.788;10.334;2023-04-25T05:41:54;11.94;80.34
28175;SHT30;59417;44.788;10.334;2023-04-25T05:44:43;11.86;79.73
28175;SHT30;59417;44.788;10.334;2023-04-25T05:47:29;11.90;79.87
28175;SHT30;59417;44.788;10.334;2023-04-25T05:50:02;12.08;79.77
28175;SHT30;59417;44.788;10.334;2023-04-25T05:52:47;12.18;80.12
28175;SHT30;59417;44.788;10.334;2023-04-25T05:55:37;12.17;79.78
28175;SHT30;59417;44.788;10.334;2023-04-25T05:58:17;12.29;79.87
28175;SHT30;59417;44.788;10.334;2023-04-25T06:00:43;12.38;78.76
28175;SHT30;59417;44.788;10.334;2023-04-25T06:03:10;12.39;79.60
28175;SHT30;59417;44.788;10.334;2023-04-25T06:05:38;12.48;79.17
28175;SHT30;59417;44.788;10.334;2023-04-25T06:08:04;12.60;78.90
28175;SHT30;59417;44.788;10.334;2023-04-25T06:10:30;12.66;78.62
28175;SHT30;59417;44.788;10.334;2023-04-25T06:12:59;12.73;77.83
28175;SHT30;59417;44.788;10.334;2023-04-25T06:15:25;12.66;78.28
28175;SHT30;59417;44.788;10.334;2023-04-25T06:17:51;12.82;77.81
28175;SHT30;59417;44.788;10.334;2023-04-25T06:20:17;12.80;78.43
28175;SHT30;59417;44.788;10.334;2023-04-25T06:22:43;12.76;78.35
28175;SHT30;59417;44.788;10.334;2023-04-25T06:25:09;12.90;78.74
28175;SHT30;59417;44.788;10.334;2023-04-25T06:27:38;12.90;77.25
28175;SHT30;59417;44.788;10.334;2023-04-25T06:30:05;12.89;78.10
28175;SHT30;59417;44.788;10.334;2023-04-25T06:32:34;12.92;78.20
28175;SHT30;59417;44.788;10.334;2023-04-25T06:35:00;13.06;77.86
28175;SHT30;59417;44.788;10.334;2023-04-25T06:37:30;13.23;78.02
28175;SHT30;59417;44.788;10.334;2023-04-25T06:40:01;13.19;76.67
28175;SHT30;59417;44.788;10.334;2023-04-25T06:42:28;13.23;77.04
28175;SHT30;59417;44.788;10.334;2023-04-25T06:44:58;13.26;76.73
28175;SHT30;59417;44.788;10.334;2023-04-25T06:47:29;13.24;76.90
28175;SHT30;59417;44.788;10.334;2023-04-25T06:49:55;13.28;76.97
28175;SHT30;59417;44.788;10.334;2023-04-25T06:52:21;13.30;77.21
28175;SHT30;59417;44.788;10.334;2023-04-25T06:54:48;13.37;77.14
28175;SHT30;59417;44.788;10.334;2023-04-25T06:57:28;13.43;76.85
28175;SHT30;59417;44.788;10.334;2023-04-25T06:59:58;13.45;76.65
28175;SHT30;59417;44.788;10.334;2023-04-25T07:02:24;13.51;77.17
28175;SHT30;59417;44.788;10.334;2023-04-25T07:04:51;13.59;77.07
28175;SHT30;59417;44.788;10.334;2023-04-25T07:07:23;13.74;76.55
28175;SHT30;59417;44.788;10.334;2023-04-25T07:09:54;13.62;77.30
28175;SHT30;59417;44.788;10.334;2023-04-25T07:12:21;13.74;77.25
28175;SHT30;59417;44.788;10.334;2023-04-25T07:14:47;13.78;77.15
28175;SHT30;59417;44.788;10.334;2023-04-25T07:17:13;13.89;77.17
28175;SHT30;59417;44.788;10.334;2023-04-25T07:19:39;13.96;77.29
28175;SHT30;59417;44.788;10.334;2023-04-25T07:22:09;14.23;76.94
28175;SHT30;59417;44.788;10.334;2023-04-25T07:24:38;14.25;76.08
28175;SHT30;59417;44.788;10.334;2023-04-25T07:27:09;14.33;75.91
28175;SHT30;59417;44.788;10.334;2023-04-25T07:29:49;14.26;75.75
28175;SHT30;59417;44.788;10.334;2023-04-25T07:32:15;14.27;76.03
28175;SHT30;59417;44.788;10.334;2023-04-25T07:34:42;14.25;76.44
28175;SHT30;59417;44.788;10.334;2023-04-25T07:37:07;14.34;76.36
28175;SHT30;59417;44.788;10.334;2023-04-25T07:39:43;14.47;75.46
28175;SHT30;59417;44.788;10.334;2023-04-25T07:42:13;14.40;75.55
28175;SHT30;59417;44.788;10.334;2023-04-25T07:44:47;14.53;75.70
28175;SHT30;59417;44.788;10.334;2023-04-25T07:47:15;14.66;75.36
28175;SHT30;59417;44.788;10.334;2023-04-25T07:49:43;14.71;75.53
28175;SHT30;59417;44.788;10.334;2023-04-25T07:52:09;14.85;75.16
28175;SHT30;59417;44.788;10.334;2023-04-25T07:54:40;14.94;74.97
28175;SHT30;59417;44.788;10.334;2023-04-25T07:57:15;15.02;74.77
28175;SHT30;59417;44.788;10.334;2023-04-25T07:59:43;15.09;74.73
28175;SHT30;59417;44.788;10.334;2023-04-25T08:02:09;15.14;74.18
28175;SHT30;59417;44.788;10.334;2023-04-25T08:04:35;15.19;72.61
28175;SHT30;59417;44.788;10.334;2023-04-25T08:07:03;15.27;72.21
28175;SHT30;59417;44.788;10.334;2023-04-25T08:09:35;15.36;69.65
28175;SHT30;59417;44.788;10.334;2023-04-25T08:12:05;15.38;67.40
28175;SHT30;59417;44.788;10.334;2023-04-25T08:14:32;15.51;65.75
28175;SHT30;59417;44.788;10.334;2023-04-25T08:17:02;15.51;63.87
28175;SHT30;59417;44.788;10.334;2023-04-25T08:19:30;15.65;62.94
28175;SHT30;59417;44.788;10.334;2023-04-25T08:21:56;15.62;62.33
28175;SHT30;59417;44.788;10.334;2023-04-25T08:24:29;15.53;62.00
28175;SHT30;59417;44.788;10.334;2023-04-25T08:26:54;15.51;62.45
28175;SHT30;59417;44.788;10.334;2023-04-25T08:29:22;15.48;62.03
28175;SHT30;59417;44.788;10.334;2023-04-25T08:31:50;15.52;63.11
28175;SHT30;59417;44.788;10.334;2023-04-25T08:34:17;15.55;63.44
28175;SHT30;59417;44.788;10.334;2023-04-25T08:36:49;15.70;62.82
28175;SHT30;59417;44.788;10.334;2023-04-25T08:39:42;15.76;62.96
28175;SHT30;59417;44.788;10.334;2023-04-25T08:42:23;15.90;63.27
28175;SHT30;59417;44.788;10.334;2023-04-25T08:44:53;15.97;63.63
28175;SHT30;59417;44.788;10.334;2023-04-25T08:47:24;15.80;62.38
28175;SHT30;59417;44.788;10.334;2023-04-25T08:49:56;15.84;63.04
28175;SHT30;59417;44.788;10.334;2023-04-25T08:52:28;15.63;63.15
28175;SHT30;59417;44.788;10.334;2023-04-25T08:54:56;15.69;63.69
28175;SHT30;59417;44.788;10.334;2023-04-25T08:57:24;15.84;62.90
28175;SHT30;59417;44.788;10.334;2023-04-25T09:00:01;15.89;62.30
28175;SHT30;59417;44.788;10.334;2023-04-25T09:02:35;15.94;62.13
28175;SHT30;59417;44.788;10.334;2023-04-25T09:05:02;16.00;62.26
28175;SHT30;59417;44.788;10.334;2023-04-25T09:07:30;16.06;62.47
28175;SHT30;59417;44.788;10.334;2023-04-25T09:09:56;16.25;61.94
28175;SHT30;59417;44.788;10.334;2023-04-25T09:12:22;16.24;62.32
28175;SHT30;59417;44.788;10.334;2023-04-25T09:15:06;16.34;61.03
28175;SHT30;59417;44.788;10.334;2023-04-25T09:17:59;16.44;61.41
28175;SHT30;59417;44.788;10.334;2023-04-25T09:20:30;16.34;60.93
28175;SHT30;59417;44.788;10.334;2023-04-25T09:23:04;16.45;61.47
28175;SHT30;59417;44.788;10.334;2023-04-25T09:25:37;16.47;61.13
28175;SHT30;59417;44.788;10.334;2023-04-25T09:28:24;16.59;61.70
28175;SHT30;59417;44.788;10.334;2023-04-25T09:30:56;16.71;61.96
28175;SHT30;59417;44.788;10.334;2023-04-25T09:33:32;16.94;62.03
28175;SHT30;59417;44.788;10.334;2023-04-25T09:36:01;17.19;60.26
28175;SHT30;59417;44.788;10.334;2023-04-25T09:38:46;17.34;59.22
28175;SHT30;59417;44.788;10.334;2023-04-25T09:41:24;17.54;58.73
28175;SHT30;59417;44.788;10.334;2023-04-25T09:43:58;17.55;58.66
28175;SHT30;59417;44.788;10.334;2023-04-25T09:46:33;17.51;57.73
28175;SHT30;59417;44.788;10.334;2023-04-25T09:49:07;17.12;57.25
28175;SHT30;59417;44.788;10.334;2023-04-25T09:51:54;17.33;58.88
28175;SHT30;59417;44.788;10.334;2023-04-25T09:54:20;17.05;57.40
28175;SHT30;59417;44.788;10.334;2023-04-25T09:56:58;16.51;58.55
28175;SHT30;59417;44.788;10.334;2023-04-25T09:59:39;16.82;59.18
28175;SHT30;59417;44.788;10.334;2023-04-25T10:02:07;17.08;59.24
28175;SHT30;59417;44.788;10.334;2023-04-25T10:04:38;17.39;58.34
28175;SHT30;59417;44.788;10.334;2023-04-25T10:07:29;17.26;58.18
28175;SHT30;59417;44.788;10.334;2023-04-25T10:10:03;17.34;58.76
28175;SHT30;59417;44.788;10.334;2023-04-25T10:12:33;17.58;58.67
28175;SHT30;59417;44.788;10.334;2023-04-25T10:15:02;17.90;60.18
28175;SHT30;59417;44.788;10.334;2023-04-25T10:17:29;18.11;59.01
28175;SHT30;59417;44.788;10.334;2023-04-25T10:19:57;18.01;57.69
28175;SHT30;59417;44.788;10.334;2023-04-25T10:22:32;18.12;56.95
28175;SHT30;59417;44.788;10.334;2023-04-25T10:25:00;18.32;57.25
28175;SHT30;59417;44.788;10.334;2023-04-25T10:31:24;18.45;58.12
28175;SHT30;59417;44.788;10.334;2023-04-25T10:34:23;18.53;57.52
28175;SHT30;59417;44.788;10.334;2023-04-25T10:42:02;18.48;58.16
28175;SHT30;59417;44.788;10.334;2023-04-25T11:11:31;19.10;58.48
28175;SHT30;59417;44.788;10.334;2023-04-25T11:15:08;19.03;56.52
28175;SHT30;59417;44.788;10.334;2023-04-25T11:18:26;18.49;57.35
28175;SHT30;59417;44.788;10.334;2023-04-25T11:25:35;19.10;57.73
28175;SHT30;59417;44.788;10.334;2023-04-25T11:29:00;19.25;57.38
28175;SHT30;59417;44.788;10.334;2023-04-25T11:45:09;19.34;54.69
28175;SHT30;59417;44.788;10.334;2023-04-25T11:52:58;19.24;55.52
28175;SHT30;59417;44.788;10.334;2023-04-25T12:11:59;20.44;51.33
28175;SHT30;59417;44.788;10.334;2023-04-25T12:14:33;20.80;52.43
28175;SHT30;59417;44.788;10.334;2023-04-25T12:17:20;20.90;51.16
28175;SHT30;59417;44.788;10.334;2023-04-25T12:23:56;20.75;51.32
28175;SHT30;59417;44.788;10.334;2023-04-25T12:26:53;20.87;52.04
28175;SHT30;59417;44.788;10.334;2023-04-25T12:29:24;21.08;50.89
28175;SHT30;59417;44.788;10.334;2023-04-25T12:31:51;21.19;50.46
28175;SHT30;59417;44.788;10.334;2023-04-25T12:34:21;21.16;50.03
28175;SHT30;59417;44.788;10.334;2023-04-25T12:36:50;21.29;49.93
28175;SHT30;59417;44.788;10.334;2023-04-25T12:39:18;21.50;49.96
28175;SHT30;59417;44.788;10.334;2023-04-25T12:41:48;21.69;49.18
28175;SHT30;59417;44.788;10.334;2023-04-25T12:44:14;21.80;48.51
28175;SHT30;59417;44.788;10.334;2023-04-25T12:46:41;21.90;47.84
28175;SHT30;59417;44.788;10.334;2023-04-25T12:49:07;21.33;47.74
28175;SHT30;59417;44.788;10.334;2023-04-25T12:51:37;21.05;49.69
28175;SHT30;59417;44.788;10.334;2023-04-25T12:54:05;20.71;50.06
28175;SHT30;59417;44.788;10.334;2023-04-25T12:56:33;20.45;50.32
28175;SHT30;59417;44.788;10.334;2023-04-25T12:59:20;20.31;50.59
28175;SHT30;59417;44.788;10.334;2023-04-25T13:01:50;20.54;50.32
28175;SHT30;59417;44.788;10.334;2023-04-25T13:04:19;20.85;50.32
28175;SHT30;59417;44.788;10.334;2023-04-25T13:06:46;21.15;49.90
28175;SHT30;59417;44.788;10.334;2023-04-25T13:09:13;21.28;49.73
28175;SHT30;59417;44.788;10.334;2023-04-25T13:11:41;20.99;49.17
28175;SHT30;59417;44.788;10.334;2023-04-25T13:14:06;21.05;49.86
28175;SHT30;59417;44.788;10.334;2023-04-25T13:16:33;21.04;49.91
28175;SHT30;59417;44.788;10.334;2023-04-25T13:18:59;21.14;50.60
28175;SHT30;59417;44.788;10.334;2023-04-25T13:21:25;21.23;50.47
28175;SHT30;59417;44.788;10.334;2023-04-25T13:23:52;21.31;49.89
28175;SHT30;59417;44.788;10.334;2023-04-25T13:26:25;21.26;49.10
28175;SHT30;59417;44.788;10.334;2023-04-25T13:29:36;21.38;48.93
28175;SHT30;59417;44.788;10.334;2023-04-25T13:32:39;21.49;49.40
28175;SHT30;59417;44.788;10.334;2023-04-25T13:35:36;21.50;50.04
28175;SHT30;59417;44.788;10.334;2023-04-25T13:38:21;21.55;50.11
28175;SHT30;59417;44.788;10.334;2023-04-25T13:56:34;21.33;49.70
28175;SHT30;59417;44.788;10.334;2023-04-25T14:04:07;21.14;49.69
28175;SHT30;59417;44.788;10.334;2023-04-25T14:15:16;21.45;49.66
28175;SHT30;59417;44.788;10.334;2023-04-25T14:26:26;21.01;49.65
28175;SHT30;59417;44.788;10.334;2023-04-25T14:52:38;20.92;49.51
28175;SHT30;59417;44.788;10.334;2023-04-25T15:03:37;21.12;51.59
28175;SHT30;59417;44.788;10.334;2023-04-25T15:15:53;20.19;54.31
28175;SHT30;59417;44.788;10.334;2023-04-25T15:19:29;19.95;53.93
28175;SHT30;59417;44.788;10.334;2023-04-25T15:32:20;19.39;55.08
28175;SHT30;59417;44.788;10.334;2023-04-25T15:35:45;19.27;55.82
28175;SHT30;59417;44.788;10.334;2023-04-25T15:46:30;17.84;55.46
28175;SHT30;59417;44.788;10.334;2023-04-25T15:50:13;17.49;57.08
28175;SHT30;59417;44.788;10.334;2023-04-25T15:57:57;17.06;60.52
28175;SHT30;59417;44.788;10.334;2023-04-25T16:00:33;16.68;63.58
28175;SHT30;59417;44.788;10.334;2023-04-25T16:03:02;16.47;66.92
28175;SHT30;59417;44.788;10.334;2023-04-25T16:05:33;16.28;68.72
28175;SHT30;59417;44.788;10.334;2023-04-25T16:08:02;16.18;68.48
28175;SHT30;59417;44.788;10.334;2023-04-25T16:10:29;16.07;69.44
28175;SHT30;59417;44.788;10.334;2023-04-25T16:12:54;16.06;70.03
28175;SHT30;59417;44.788;10.334;2023-04-25T16:15:20;15.77;72.78
28175;SHT30;59417;44.788;10.334;2023-04-25T16:17:49;15.49;72.93
28175;SHT30;59417;44.788;10.334;2023-04-25T16:20:15;15.27;73.05
28175;SHT30;59417;44.788;10.334;2023-04-25T16:22:42;15.49;75.13
28175;SHT30;59417;44.788;10.334;2023-04-25T16:25:12;15.65;73.90
28175;SHT30;59417;44.788;10.334;2023-04-25T16:27:41;15.25;73.30
28175;SHT30;59417;44.788;10.334;2023-04-25T16:30:09;15.18;73.32
28175;SHT30;59417;44.788;10.334;2023-04-25T16:32:35;15.43;72.52
28175;SHT30;59417;44.788;10.334;2023-04-25T16:35:02;15.46;72.79
28175;SHT30;59417;44.788;10.334;2023-04-25T16:37:28;15.59;71.85
28175;SHT30;59417;44.788;10.334;2023-04-25T16:39:54;15.84;71.85
28175;SHT30;59417;44.788;10.334;2023-04-25T16:42:22;16.14;71.21
28175;SHT30;59417;44.788;10.334;2023-04-25T16:44:48;16.33;70.91
28175;SHT30;59417;44.788;10.334;2023-04-25T16:47:14;16.48;68.53
28175;SHT30;59417;44.788;10.334;2023-04-25T16:49:41;16.79;69.67
28175;SHT30;59417;44.788;10.334;2023-04-25T16:52:07;16.82;67.59
28175;SHT30;59417;44.788;10.334;2023-04-25T16:54:32;16.80;67.37
28175;SHT30;59417;44.788;10.334;2023-04-25T17:00:23;16.71;66.64
28175;SHT30;59417;44.788;10.334;2023-04-25T17:02:49;16.68;67.40
28175;SHT30;59417;44.788;10.334;2023-04-25T17:05:18;16.59;67.64
28175;SHT30;59417;44.788;10.334;2023-04-25T17:07:44;16.61;68.77
28175;SHT30;59417;44.788;10.334;2023-04-25T17:10:13;16.65;68.72
28175;SHT30;59417;44.788;10.334;2023-04-25T17:16:11;16.25;68.35
28175;SHT30;59417;44.788;10.334;2023-04-25T17:19:09;15.94;69.41
28175;SHT30;59417;44.788;10.334;2023-04-25T17:22:08;16.16;69.37
28175;SHT30;59417;44.788;10.334;2023-04-25T17:32:15;16.12;68.62
28175;SHT30;59417;44.788;10.334;2023-04-25T17:35:12;16.04;69.39
28175;SHT30;59417;44.788;10.334;2023-04-25T17:37:42;16.06;69.54
28175;SHT30;59417;44.788;10.334;2023-04-25T17:40:10;16.01;68.55
28175;SHT30;59417;44.788;10.334;2023-04-25T17:42:38;16.12;68.22
28175;SHT30;59417;44.788;10.334;2023-04-25T17:45:06;16.03;68.49
28175;SHT30;59417;44.788;10.334;2023-04-25T17:47:35;16.09;69.45
28175;SHT30;59417;44.788;10.334;2023-04-25T17:50:36;15.93;68.18
28175;SHT30;59417;44.788;10.334;2023-04-25T17:53:54;15.98;68.34
28175;SHT30;59417;44.788;10.334;2023-04-25T17:57:26;15.97;67.94
28175;SHT30;59417;44.788;10.334;2023-04-25T17:59:58;15.91;67.58
28175;SHT30;59417;44.788;10.334;2023-04-25T18:02:27;16.01;68.08
28175;SHT30;59417;44.788;10.334;2023-04-25T18:04:53;15.96;68.57
28175;SHT30;59417;44.788;10.334;2023-04-25T18:07:20;15.91;69.35
28175;SHT30;59417;44.788;10.334;2023-04-25T18:11:05;15.84;69.14
28175;SHT30;59417;44.788;10.334;2023-04-25T18:13:49;15.91;68.68
28175;SHT30;59417;44.788;10.334;2023-04-25T18:16:15;15.82;69.55
28175;SHT30;59417;44.788;10.334;2023-04-25T18:18:41;15.65;70.36
28175;SHT30;59417;44.788;10.334;2023-04-25T18:21:09;15.58;70.88
28175;SHT30;59417;44.788;10.334;2023-04-25T18:23:34;15.55;70.99
28175;SHT30;59417;44.788;10.334;2023-04-25T18:26:01;15.59;71.23
28175;SHT30;59417;44.788;10.334;2023-04-25T18:28:28;15.58;71.23
28175;SHT30;59417;44.788;10.334;2023-04-25T18:30:54;15.51;71.13
28175;SHT30;59417;44.788;10.334;2023-04-25T18:33:20;15.53;70.95
28175;SHT30;59417;44.788;10.334;2023-04-25T18:35:48;15.56;70.73
28175;SHT30;59417;44.788;10.334;2023-04-25T18:38:23;15.52;70.97
28175;SHT30;59417;44.788;10.334;2023-04-25T18:41:00;15.63;70.73
28175;SHT30;59417;44.788;10.334;2023-04-25T18:43:27;15.58;70.88
28175;SHT30;59417;44.788;10.334;2023-04-25T18:45:53;15.49;71.31
28175;SHT30;59417;44.788;10.334;2023-04-25T18:48:22;15.38;71.77
28175;SHT30;59417;44.788;10.334;2023-04-25T18:50:48;15.39;71.44
28175;SHT30;59417;44.788;10.334;2023-04-25T18:53:17;15.39;71.55
28175;SHT30;59417;44.788;10.334;2023-04-25T18:55:43;15.42;71.17
28175;SHT30;59417;44.788;10.334;2023-04-25T18:58:09;15.43;71.29
28175;SHT30;59417;44.788;10.334;2023-04-25T19:00:36;15.49;71.40
28175;SHT30;59417;44.788;10.334;2023-04-25T19:03:03;15.51;71.09
28175;SHT30;59417;44.788;10.334;2023-04-25T19:05:29;15.39;71.26
28175;SHT30;59417;44.788;10.334;2023-04-25T19:07:57;15.51;70.41
28175;SHT30;59417;44.788;10.334;2023-04-25T19:10:23;15.36;71.12
28175;SHT30;59417;44.788;10.334;2023-04-25T19:12:49;15.41;71.22
28175;SHT30;59417;44.788;10.334;2023-04-25T19:15:18;15.32;71.33
28175;SHT30;59417;44.788;10.334;2023-04-25T19:17:47;15.25;71.06
28175;SHT30;59417;44.788;10.334;2023-04-25T19:20:13;15.21;71.65
28175;SHT30;59417;44.788;10.334;2023-04-25T19:22:57;15.09;72.29
28175;SHT30;59417;44.788;10.334;2023-04-25T19:25:40;15.02;72.45
28175;SHT30;59417;44.788;10.334;2023-04-25T19:28:17;15.07;72.16
28175;SHT30;59417;44.788;10.334;2023-04-25T19:30:43;15.07;71.52
28175;SHT30;59417;44.788;10.334;2023-04-25T19:33:10;15.07;71.70
28175;SHT30;59417;44.788;10.334;2023-04-25T19:35:36;14.97;72.03
28175;SHT30;59417;44.788;10.334;2023-04-25T19:38:03;15.05;71.47
28175;SHT30;59417;44.788;10.334;2023-04-25T19:40:29;15.01;71.17
28175;SHT30;59417;44.788;10.334;2023-04-25T19:43:29;14.98;71.09
28175;SHT30;59417;44.788;10.334;2023-04-25T19:46:35;14.80;70.60
28175;SHT30;59417;44.788;10.334;2023-04-25T19:49:10;14.70;70.25
28175;SHT30;59417;44.788;10.334;2023-04-25T19:51:37;14.67;68.94
28175;SHT30;59417;44.788;10.334;2023-04-25T19:54:04;14.53;69.50
28175;SHT30;59417;44.788;10.334;2023-04-25T19:56:35;14.44;69.81
28175;SHT30;59417;44.788;10.334;2023-04-25T19:59:01;14.43;69.94
28175;SHT30;59417;44.788;10.334;2023-04-25T20:01:27;14.30;70.68
28175;SHT30;59417;44.788;10.334;2023-04-25T20:03:54;14.23;71.08
28175;SHT30;59417;44.788;10.334;2023-04-25T20:06:20;14.08;71.65
28175;SHT30;59417;44.788;10.334;2023-04-25T20:08:46;13.95;72.12
28175;SHT30;59417;44.788;10.334;2023-04-25T20:11:12;13.79;72.16
28175;SHT30;59417;44.788;10.334;2023-04-25T20:13:39;13.71;72.56
28175;SHT30;59417;44.788;10.334;2023-04-25T20:16:05;13.64;72.68
28175;SHT30;59417;44.788;10.334;2023-04-25T20:18:32;13.55;73.05
28175;SHT30;59417;44.788;10.334;2023-04-25T20:20:58;13.54;72.60
28175;SHT30;59417;44.788;10.334;2023-04-25T20:23:24;13.57;72.28
28175;SHT30;59417;44.788;10.334;2023-04-25T20:25:50;13.28;73.00
28175;SHT30;59417;44.788;10.334;2023-04-25T20:28:18;13.23;73.36
28175;SHT30;59417;44.788;10.334;2023-04-25T20:30:47;13.04;73.34
28175;SHT30;59417;44.788;10.334;2023-04-25T20:33:13;12.97;73.35
28175;SHT30;59417;44.788;10.334;2023-04-25T20:35:40;12.99;73.63
28175;SHT30;59417;44.788;10.334;2023-04-25T20:38:06;13.09;72.75
28175;SHT30;59417;44.788;10.334;2023-04-25T20:40:32;13.06;72.99
28175;SHT30;59417;44.788;10.334;2023-04-25T20:42:58;13.07;73.35
28175;SHT30;59417;44.788;10.334;2023-04-25T20:45:26;13.16;73.37
28175;SHT30;59417;44.788;10.334;2023-04-25T20:47:56;13.27;73.94
28175;SHT30;59417;44.788;10.334;2023-04-25T20:50:22;13.40;73.67
28175;SHT30;59417;44.788;10.334;2023-04-25T20:52:48;13.41;73.24
28175;SHT30;59417;44.788;10.334;2023-04-25T20:55:14;13.55;72.76
28175;SHT30;59417;44.788;10.334;2023-04-25T20:57:44;13.55;72.39
28175;SHT30;59417;44.788;10.334;2023-04-25T21:00:10;13.58;72.83
28175;SHT30;59417;44.788;10.334;2023-04-25T21:02:51;13.58;72.65
28175;SHT30;59417;44.788;10.334;2023-04-25T21:05:18;13.45;72.89
28175;SHT30;59417;44.788;10.334;2023-04-25T21:07:50;13.48;73.40
28175;SHT30;59417;44.788;10.334;2023-04-25T21:10:19;13.43;73.77
28175;SHT30;59417;44.788;10.334;2023-04-25T21:12:45;13.58;73.56
28175;SHT30;59417;44.788;10.334;2023-04-25T21:15:23;13.58;73.53
28175;SHT30;59417;44.788;10.334;2023-04-25T21:17:57;13.62;73.45
28175;SHT30;59417;44.788;10.334;2023-04-25T21:20:26;13.71;72.85
28175;SHT30;59417;44.788;10.334;2023-04-25T21:23:00;13.89;72.15
28175;SHT30;59417;44.788;10.334;2023-04-25T21:25:26;13.86;72.20
28175;SHT30;59417;44.788;10.334;2023-04-25T21:28:00;13.77;72.64
28175;SHT30;59417;44.788;10.334;2023-04-25T21:30:27;13.44;73.74
28175;SHT30;59417;44.788;10.334;2023-04-25T21:32:54;13.35;73.43
28175;SHT30;59417;44.788;10.334;2023-04-25T21:35:23;13.30;74.10